Search for airport 
image banner adimage banner adimage banner ad
image banner ad

KSPW - Spencer Muni

Located in Spencer, United States

ICAO - SPW, IATA -

Data provided by Airmate  

General information

Coordinates: N43°9'56" W95°12'10"
Elevation is 1339 feet MSL.
Magnetic variation is 05° East
View others Airports in Iowa

Operational data

Special qualification required
Current time UTC:
Current local time:
Weather
METAR: KSPW 150953Z AUTO 29003KT 10SM CLR 11/08 A3014 RMK AO2 SLP199 T01110078 TSNO
View NOTAMs / SUP AIP / TFR affecting this airport [VIEW]
Communications frequencies: [VIEW]

Runways:

RWY identifierQFULength (ft)Width (ft)SurfaceLDA (ft)
12126°6001100CONC
30306°6001100CONC
18186°510075CONC
36510075CONC

Airport contact information

Address: Spencer United States

Other aviation service providers

Flight schools

Leading Edge Aviation

Leading Edge Aviation

Satellite view of KSPW